sensor_id;sensor_type;location;lat;lon;timestamp;temperature;humidity
55329;DHT22;41205;44.264;19.884;2022-08-18T00:01:47;563.80;2432.00
55329;DHT22;41205;44.264;19.884;2022-08-18T00:04:13;563.80;2432.00
55329;DHT22;41205;44.264;19.884;2022-08-18T00:06:39;564.00;2432.00
55329;DHT22;41205;44.264;19.884;2022-08-18T00:09:05;563.90;2432.00
55329;DHT22;41205;44.264;19.884;2022-08-18T00:11:32;564.00;2432.00
55329;DHT22;41205;44.264;19.884;2022-08-18T00:13:59;564.00;2432.00
55329;DHT22;41205;44.264;19.884;2022-08-18T00:16:24;564.00;2432.00
55329;DHT22;41205;44.264;19.884;2022-08-18T00:18:50;564.00;2432.00
55329;DHT22;41205;44.264;19.884;2022-08-18T00:21:16;563.90;2432.00
55329;DHT22;41205;44.264;19.884;2022-08-18T00:23:42;564.00;2432.00
55329;DHT22;41205;44.264;19.884;2022-08-18T00:26:07;563.90;2432.00
55329;DHT22;41205;44.264;19.884;2022-08-18T00:28:33;563.80;2432.00
55329;DHT22;41205;44.264;19.884;2022-08-18T00:30:58;563.90;2432.00
55329;DHT22;41205;44.264;19.884;2022-08-18T00:33:24;563.90;2432.00
55329;DHT22;41205;44.264;19.884;2022-08-18T00:35:49;563.80;2432.00
55329;DHT22;41205;44.264;19.884;2022-08-18T00:38:15;563.80;2432.00
55329;DHT22;41205;44.264;19.884;2022-08-18T00:40:43;563.80;2432.00
55329;DHT22;41205;44.264;19.884;2022-08-18T00:43:13;563.60;2432.00
55329;DHT22;41205;44.264;19.884;2022-08-18T00:45:42;563.60;2432.00
55329;DHT22;41205;44.264;19.884;2022-08-18T00:48:08;563.60;2432.00
55329;DHT22;41205;44.264;19.884;2022-08-18T00:50:47;563.60;2432.00
55329;DHT22;41205;44.264;19.884;2022-08-18T00:56:21;563.60;2432.00
55329;DHT22;41205;44.264;19.884;2022-08-18T00:58:51;563.50;2432.00
55329;DHT22;41205;44.264;19.884;2022-08-18T01:01:18;563.50;2432.00
55329;DHT22;41205;44.264;19.884;2022-08-18T01:03:44;563.50;2432.00
55329;DHT22;41205;44.264;19.884;2022-08-18T01:06:32;563.30;2432.00
55329;DHT22;41205;44.264;19.884;2022-08-18T01:09:00;563.40;2432.00
55329;DHT22;41205;44.264;19.884;2022-08-18T01:11:26;563.30;2432.00
55329;DHT22;41205;44.264;19.884;2022-08-18T01:13:51;563.30;2432.00
55329;DHT22;41205;44.264;19.884;2022-08-18T01:16:18;563.30;2432.00
55329;DHT22;41205;44.264;19.884;2022-08-18T01:19:02;563.30;2432.00
55329;DHT22;41205;44.264;19.884;2022-08-18T01:21:48;563.20;2432.00
55329;DHT22;41205;44.264;19.884;2022-08-18T01:24:15;563.20;2432.00
55329;DHT22;41205;44.264;19.884;2022-08-18T01:26:41;538.50;2406.40
55329;DHT22;41205;44.264;19.884;2022-08-18T01:29:10;538.50;2406.40
55329;DHT22;41205;44.264;19.884;2022-08-18T01:31:37;538.40;2406.40
55329;DHT22;41205;44.264;19.884;2022-08-18T01:34:07;538.40;2406.40
55329;DHT22;41205;44.264;19.884;2022-08-18T01:36:34;538.40;2406.40
55329;DHT22;41205;44.264;19.884;2022-08-18T01:39:02;538.40;2406.40
55329;DHT22;41205;44.264;19.884;2022-08-18T01:41:28;538.30;2406.40
55329;DHT22;41205;44.264;19.884;2022-08-18T01:43:55;538.30;2406.40
55329;DHT22;41205;44.264;19.884;2022-08-18T01:46:21;538.20;2406.40
55329;DHT22;41205;44.264;19.884;2022-08-18T01:48:47;538.20;2406.40
55329;DHT22;41205;44.264;19.884;2022-08-18T01:51:13;538.20;2406.40
55329;DHT22;41205;44.264;19.884;2022-08-18T01:53:39;538.10;2406.40
55329;DHT22;41205;44.264;19.884;2022-08-18T01:56:05;538.10;2406.40
55329;DHT22;41205;44.264;19.884;2022-08-18T01:58:32;538.10;2406.40
55329;DHT22;41205;44.264;19.884;2022-08-18T02:00:58;538.10;2406.40
55329;DHT22;41205;44.264;19.884;2022-08-18T02:03:38;538.10;2406.40
55329;DHT22;41205;44.264;19.884;2022-08-18T02:06:07;538.00;2406.40
55329;DHT22;41205;44.264;19.884;2022-08-18T02:08:34;537.90;2406.40
55329;DHT22;41205;44.264;19.884;2022-08-18T02:11:00;537.90;2406.40
55329;DHT22;41205;44.264;19.884;2022-08-18T02:13:27;537.90;2406.40
55329;DHT22;41205;44.264;19.884;2022-08-18T02:15:53;537.80;2406.40
55329;DHT22;41205;44.264;19.884;2022-08-18T02:18:20;537.90;2406.40
55329;DHT22;41205;44.264;19.884;2022-08-18T02:20:46;537.80;2406.40
55329;DHT22;41205;44.264;19.884;2022-08-18T02:23:12;537.80;2406.40
55329;DHT22;41205;44.264;19.884;2022-08-18T02:25:38;537.80;2406.40
55329;DHT22;41205;44.264;19.884;2022-08-18T02:28:04;537.70;2406.40
55329;DHT22;41205;44.264;19.884;2022-08-18T02:30:30;537.80;2406.40
55329;DHT22;41205;44.264;19.884;2022-08-18T02:32:56;537.80;2406.40
55329;DHT22;41205;44.264;19.884;2022-08-18T02:35:22;537.70;2406.40
55329;DHT22;41205;44.264;19.884;2022-08-18T02:37:47;537.70;2406.40
55329;DHT22;41205;44.264;19.884;2022-08-18T02:40:13;537.60;2406.40
55329;DHT22;41205;44.264;19.884;2022-08-18T02:42:39;537.70;2406.40
55329;DHT22;41205;44.264;19.884;2022-08-18T02:45:06;537.70;2406.40
55329;DHT22;41205;44.264;19.884;2022-08-18T02:47:32;537.70;2406.40
55329;DHT22;41205;44.264;19.884;2022-08-18T02:49:58;512.90;2380.80
55329;DHT22;41205;44.264;19.884;2022-08-18T02:52:23;512.90;2380.80
55329;DHT22;41205;44.264;19.884;2022-08-18T02:54:57;512.90;2380.80
55329;DHT22;41205;44.264;19.884;2022-08-18T02:57:23;512.90;2380.80
55329;DHT22;41205;44.264;19.884;2022-08-18T02:59:48;512.90;2380.80
55329;DHT22;41205;44.264;19.884;2022-08-18T03:02:14;512.90;2380.80
55329;DHT22;41205;44.264;19.884;2022-08-18T03:04:39;512.90;2380.80
55329;DHT22;41205;44.264;19.884;2022-08-18T03:07:06;512.80;2380.80
55329;DHT22;41205;44.264;19.884;2022-08-18T03:09:31;512.80;2380.80
55329;DHT22;41205;44.264;19.884;2022-08-18T03:11:57;512.70;2380.80
55329;DHT22;41205;44.264;19.884;2022-08-18T03:14:23;512.70;2380.80
55329;DHT22;41205;44.264;19.884;2022-08-18T03:16:49;512.60;2380.80
55329;DHT22;41205;44.264;19.884;2022-08-18T03:19:15;512.70;2380.80
55329;DHT22;41205;44.264;19.884;2022-08-18T03:21:42;512.60;2380.80
55329;DHT22;41205;44.264;19.884;2022-08-18T03:24:08;512.70;2380.80
55329;DHT22;41205;44.264;19.884;2022-08-18T03:26:34;512.60;2380.80
55329;DHT22;41205;44.264;19.884;2022-08-18T03:29:00;512.50;2380.80
55329;DHT22;41205;44.264;19.884;2022-08-18T03:31:26;512.60;2380.80
55329;DHT22;41205;44.264;19.884;2022-08-18T03:33:52;512.70;2380.80
55329;DHT22;41205;44.264;19.884;2022-08-18T03:36:21;512.60;2380.80
55329;DHT22;41205;44.264;19.884;2022-08-18T03:38:47;512.60;2380.80
55329;DHT22;41205;44.264;19.884;2022-08-18T03:41:14;512.60;2380.80
55329;DHT22;41205;44.264;19.884;2022-08-18T03:43:40;512.60;2380.80
55329;DHT22;41205;44.264;19.884;2022-08-18T03:46:07;512.60;2380.80
55329;DHT22;41205;44.264;19.884;2022-08-18T03:48:34;512.70;2380.80
55329;DHT22;41205;44.264;19.884;2022-08-18T03:51:04;512.70;2380.80
55329;DHT22;41205;44.264;19.884;2022-08-18T03:53:31;512.70;2380.80
55329;DHT22;41205;44.264;19.884;2022-08-18T03:55:58;512.90;2380.80
55329;DHT22;41205;44.264;19.884;2022-08-18T03:58:23;512.90;2380.80
55329;DHT22;41205;44.264;19.884;2022-08-18T04:00:49;512.90;2380.80
55329;DHT22;41205;44.264;19.884;2022-08-18T04:03:15;537.60;2406.40
55329;DHT22;41205;44.264;19.884;2022-08-18T04:05:40;537.70;2406.40
55329;DHT22;41205;44.264;19.884;2022-08-18T04:08:06;537.80;2406.40
55329;DHT22;41205;44.264;19.884;2022-08-18T04:10:32;537.90;2406.40
55329;DHT22;41205;44.264;19.884;2022-08-18T04:12:57;537.90;2406.40
55329;DHT22;41205;44.264;19.884;2022-08-18T04:15:23;537.90;2406.40
55329;DHT22;41205;44.264;19.884;2022-08-18T04:17:48;538.00;2406.40
55329;DHT22;41205;44.264;19.884;2022-08-18T04:20:14;538.00;2406.40
55329;DHT22;41205;44.264;19.884;2022-08-18T04:22:40;538.00;2406.40
55329;DHT22;41205;44.264;19.884;2022-08-18T04:25:06;537.90;2406.40
55329;DHT22;41205;44.264;19.884;2022-08-18T04:27:35;538.00;2406.40
55329;DHT22;41205;44.264;19.884;2022-08-18T04:30:04;538.10;2406.40
55329;DHT22;41205;44.264;19.884;2022-08-18T04:32:30;538.30;2406.40
55329;DHT22;41205;44.264;19.884;2022-08-18T04:34:55;538.40;2406.40
55329;DHT22;41205;44.264;19.884;2022-08-18T04:37:21;538.50;2406.40
55329;DHT22;41205;44.264;19.884;2022-08-18T04:39:47;563.20;2432.00
55329;DHT22;41205;44.264;19.884;2022-08-18T04:42:13;563.30;2432.00
55329;DHT22;41205;44.264;19.884;2022-08-18T04:44:38;563.40;2432.00
55329;DHT22;41205;44.264;19.884;2022-08-18T04:47:04;563.70;2432.00
55329;DHT22;41205;44.264;19.884;2022-08-18T04:49:32;564.00;2432.00
55329;DHT22;41205;44.264;19.884;2022-08-18T04:51:58;589.60;2432.00
55329;DHT22;41205;44.264;19.884;2022-08-18T04:54:42;615.10;2432.00
55329;DHT22;41205;44.264;19.884;2022-08-18T04:57:09;665.70;2406.40
55329;DHT22;41205;44.264;19.884;2022-08-18T04:59:35;666.10;2252.80
55329;DHT22;41205;44.264;19.884;2022-08-18T05:02:01;666.50;2201.60
55329;DHT22;41205;44.264;19.884;2022-08-18T05:04:33;691.40;2176.00
55329;DHT22;41205;44.264;19.884;2022-08-18T05:06:59;692.10;2048.00
55329;DHT22;41205;44.264;19.884;2022-08-18T05:09:25;692.10;2022.40
55329;DHT22;41205;44.264;19.884;2022-08-18T05:11:51;742.90;1920.00
55329;DHT22;41205;44.264;19.884;2022-08-18T05:14:17;793.70;1766.40
55329;DHT22;41205;44.264;19.884;2022-08-18T05:16:43;819.50;1664.00
55329;DHT22;41205;44.264;19.884;2022-08-18T05:19:10;820.10;1612.80
55329;DHT22;41205;44.264;19.884;2022-08-18T05:21:39;845.60;1536.00
55329;DHT22;41205;44.264;19.884;2022-08-18T05:24:06;870.90;1459.20
55329;DHT22;41205;44.264;19.884;2022-08-18T05:26:32;896.50;1382.40
55329;DHT22;41205;44.264;19.884;2022-08-18T05:28:58;896.90;1356.80
55329;DHT22;41205;44.264;19.884;2022-08-18T05:31:25;922.50;1331.20
55329;DHT22;41205;44.264;19.884;2022-08-18T05:33:51;947.30;1280.00
55329;DHT22;41205;44.264;19.884;2022-08-18T05:38:53;922.50;1280.00
55329;DHT22;41205;44.264;19.884;2022-08-18T05:41:30;947.30;1254.40
55329;DHT22;41205;44.264;19.884;2022-08-18T05:43:58;947.70;1254.40
55329;DHT22;41205;44.264;19.884;2022-08-18T05:46:28;947.60;1254.40
55329;DHT22;41205;44.264;19.884;2022-08-18T05:48:54;947.70;1228.80
55329;DHT22;41205;44.264;19.884;2022-08-18T05:51:30;972.80;1254.40
55329;DHT22;41205;44.264;19.884;2022-08-18T05:53:57;973.10;1254.40
55329;DHT22;41205;44.264;19.884;2022-08-18T05:56:41;998.60;1228.80
55329;DHT22;41205;44.264;19.884;2022-08-18T05:59:11;999.10;1203.20
55329;DHT22;41205;44.264;19.884;2022-08-18T06:01:39;999.00;1203.20
55329;DHT22;41205;44.264;19.884;2022-08-18T06:04:20;999.20;1203.20
55329;DHT22;41205;44.264;19.884;2022-08-18T06:06:47;1024.30;1152.00
55329;DHT22;41205;44.264;19.884;2022-08-18T06:11:52;1024.50;1126.40
55329;DHT22;41205;44.264;19.884;2022-08-18T06:14:20;999.20;1152.00
55329;DHT22;41205;44.264;19.884;2022-08-18T06:16:49;1024.30;1152.00
55329;DHT22;41205;44.264;19.884;2022-08-18T06:19:29;999.20;1152.00
55329;DHT22;41205;44.264;19.884;2022-08-18T06:22:06;998.80;1177.60
55329;DHT22;41205;44.264;19.884;2022-08-18T06:34:55;1075.40;1100.80
55329;DHT22;41205;44.264;19.884;2022-08-18T06:39:51;1075.20;1100.80
55329;DHT22;41205;44.264;19.884;2022-08-18T06:42:17;1075.40;1075.20
55329;DHT22;41205;44.264;19.884;2022-08-18T06:44:50;1075.70;1075.20
55329;DHT22;41205;44.264;19.884;2022-08-18T06:52:31;1101.20;1049.60
55329;DHT22;41205;44.264;19.884;2022-08-18T06:54:59;1100.90;1049.60
55329;DHT22;41205;44.264;19.884;2022-08-18T06:57:38;1101.30;1049.60
55329;DHT22;41205;44.264;19.884;2022-08-18T07:09:49;1126.90;1024.00
55329;DHT22;41205;44.264;19.884;2022-08-18T07:12:19;1126.70;1024.00
55329;DHT22;41205;44.264;19.884;2022-08-18T07:14:46;1126.50;1024.00
55329;DHT22;41205;44.264;19.884;2022-08-18T07:17:18;1126.50;1024.00
55329;DHT22;41205;44.264;19.884;2022-08-18T07:20:04;1101.60;1024.00
55329;DHT22;41205;44.264;19.884;2022-08-18T07:22:31;1126.90;1024.00
55329;DHT22;41205;44.264;19.884;2022-08-18T07:24:57;1126.70;1024.00
55329;DHT22;41205;44.264;19.884;2022-08-18T07:32:25;1101.50;1024.00
55329;DHT22;41205;44.264;19.884;2022-08-18T07:34:52;1101.60;1024.00
55329;DHT22;41205;44.264;19.884;2022-08-18T07:37:34;1126.50;1024.00
55329;DHT22;41205;44.264;19.884;2022-08-18T07:45:08;1178.30;947.20
55329;DHT22;41205;44.264;19.884;2022-08-18T07:50:02;1178.10;947.20
55329;DHT22;41205;44.264;19.884;2022-08-18T07:52:29;1152.60;998.40
55329;DHT22;41205;44.264;19.884;2022-08-18T07:55:03;1152.50;998.40
55329;DHT22;41205;44.264;19.884;2022-08-18T07:57:44;1152.20;998.40
55329;DHT22;41205;44.264;19.884;2022-08-18T08:03:05;1152.90;972.80
55329;DHT22;41205;44.264;19.884;2022-08-18T08:10:38;1127.10;998.40
55329;DHT22;41205;44.264;19.884;2022-08-18T08:15:45;1101.70;998.40
55329;DHT22;41205;44.264;19.884;2022-08-18T08:20:55;1177.60;947.20
55329;DHT22;41205;44.264;19.884;2022-08-18T08:25:55;1177.70;921.60
55329;DHT22;41205;44.264;19.884;2022-08-18T08:30:52;1178.20;896.00
55329;DHT22;41205;44.264;19.884;2022-08-18T08:33:33;1177.70;921.60
55329;DHT22;41205;44.264;19.884;2022-08-18T08:36:07;1178.20;870.40
55329;DHT22;41205;44.264;19.884;2022-08-18T08:41:04;1152.10;896.00
55329;DHT22;41205;44.264;19.884;2022-08-18T08:43:37;1101.10;947.20
55329;DHT22;41205;44.264;19.884;2022-08-18T08:48:31;1024.50;972.80
55329;DHT22;41205;44.264;19.884;2022-08-18T08:51:00;1024.40;998.40
55329;DHT22;41205;44.264;19.884;2022-08-18T08:53:28;1024.00;972.80
55329;DHT22;41205;44.264;19.884;2022-08-18T08:55:58;1024.00;998.40
55329;DHT22;41205;44.264;19.884;2022-08-18T09:00:56;973.10;1049.60
55329;DHT22;41205;44.264;19.884;2022-08-18T09:19:09;972.90;1100.80
55329;DHT22;41205;44.264;19.884;2022-08-18T09:21:58;947.40;1075.20
55329;DHT22;41205;44.264;19.884;2022-08-18T09:24:28;947.60;1100.80
55329;DHT22;41205;44.264;19.884;2022-08-18T09:37:11;922.40;1126.40
55329;DHT22;41205;44.264;19.884;2022-08-18T09:39:39;922.40;1100.80
55329;DHT22;41205;44.264;19.884;2022-08-18T09:44:59;922.40;1100.80
55329;DHT22;41205;44.264;19.884;2022-08-18T09:49:52;947.30;1075.20
55329;DHT22;41205;44.264;19.884;2022-08-18T09:59:51;947.50;1075.20
55329;DHT22;41205;44.264;19.884;2022-08-18T10:05:36;947.40;1049.60
55329;DHT22;41205;44.264;19.884;2022-08-18T10:07:38;947.50;1075.20
55329;DHT22;41205;44.264;19.884;2022-08-18T10:18:01;947.50;1075.20
55329;DHT22;41205;44.264;19.884;2022-08-18T10:23:00;947.50;1049.60
55329;DHT22;41205;44.264;19.884;2022-08-18T10:25:36;947.60;1024.00
55329;DHT22;41205;44.264;19.884;2022-08-18T10:28:03;947.60;1024.00
55329;DHT22;41205;44.264;19.884;2022-08-18T10:33:02;947.50;1049.60
55329;DHT22;41205;44.264;19.884;2022-08-18T10:38:11;922.50;1049.60
55329;DHT22;41205;44.264;19.884;2022-08-18T10:40:39;922.40;1049.60
55329;DHT22;41205;44.264;19.884;2022-08-18T10:43:17;922.50;1049.60
55329;DHT22;41205;44.264;19.884;2022-08-18T10:45:44;922.50;1049.60
55329;DHT22;41205;44.264;19.884;2022-08-18T10:50:45;922.50;1049.60
55329;DHT22;41205;44.264;19.884;2022-08-18T10:56:08;922.50;1049.60
55329;DHT22;41205;44.264;19.884;2022-08-18T11:04:23;922.50;1075.20
55329;DHT22;41205;44.264;19.884;2022-08-18T11:06:52;922.50;1049.60
55329;DHT22;41205;44.264;19.884;2022-08-18T11:09:24;922.40;998.40
55329;DHT22;41205;44.264;19.884;2022-08-18T11:11:51;922.50;998.40
55329;DHT22;41205;44.264;19.884;2022-08-18T11:19:50;922.40;1075.20
55329;DHT22;41205;44.264;19.884;2022-08-18T11:22:20;922.30;1075.20
55329;DHT22;41205;44.264;19.884;2022-08-18T11:24:46;922.30;1049.60
55329;DHT22;41205;44.264;19.884;2022-08-18T11:27:16;922.40;1049.60
55329;DHT22;41205;44.264;19.884;2022-08-18T11:29:42;922.30;1049.60
55329;DHT22;41205;44.264;19.884;2022-08-18T11:32:41;922.10;1049.60
55329;DHT22;41205;44.264;19.884;2022-08-18T11:35:02;922.20;1049.60
55329;DHT22;41205;44.264;19.884;2022-08-18T11:39:58;922.20;1049.60
55329;DHT22;41205;44.264;19.884;2022-08-18T11:42:36;922.40;1024.00
55329;DHT22;41205;44.264;19.884;2022-08-18T11:47:28;922.40;1024.00
55329;DHT22;41205;44.264;19.884;2022-08-18T11:49:55;922.40;1049.60
55329;DHT22;41205;44.264;19.884;2022-08-18T11:52:26;922.50;1049.60
55329;DHT22;41205;44.264;19.884;2022-08-18T11:54:57;922.40;1024.00
55329;DHT22;41205;44.264;19.884;2022-08-18T11:58:08;922.30;1024.00
55329;DHT22;41205;44.264;19.884;2022-08-18T12:03:00;922.40;1049.60
55329;DHT22;41205;44.264;19.884;2022-08-18T12:05:26;922.40;1024.00
55329;DHT22;41205;44.264;19.884;2022-08-18T12:07:52;922.50;1024.00
55329;DHT22;41205;44.264;19.884;2022-08-18T12:12:43;922.20;1049.60
55329;DHT22;41205;44.264;19.884;2022-08-18T12:17:37;922.10;1024.00
55329;DHT22;41205;44.264;19.884;2022-08-18T12:20:02;922.20;1049.60
55329;DHT22;41205;44.264;19.884;2022-08-18T12:22:31;922.20;1049.60
55329;DHT22;41205;44.264;19.884;2022-08-18T12:24:57;922.30;1049.60
55329;DHT22;41205;44.264;19.884;2022-08-18T12:27:25;922.30;1049.60
55329;DHT22;41205;44.264;19.884;2022-08-18T12:29:54;922.40;1049.60
55329;DHT22;41205;44.264;19.884;2022-08-18T12:32:21;922.50;1049.60
55329;DHT22;41205;44.264;19.884;2022-08-18T12:34:47;922.40;1024.00
55329;DHT22;41205;44.264;19.884;2022-08-18T12:37:17;922.50;1049.60
55329;DHT22;41205;44.264;19.884;2022-08-18T12:39:43;947.20;1049.60
55329;DHT22;41205;44.264;19.884;2022-08-18T12:42:09;947.20;1049.60
55329;DHT22;41205;44.264;19.884;2022-08-18T12:44:35;947.30;1049.60
55329;DHT22;41205;44.264;19.884;2022-08-18T12:47:01;922.50;1024.00
55329;DHT22;41205;44.264;19.884;2022-08-18T12:49:27;922.50;1024.00
55329;DHT22;41205;44.264;19.884;2022-08-18T12:51:53;947.20;1049.60
55329;DHT22;41205;44.264;19.884;2022-08-18T12:54:19;922.50;1049.60
55329;DHT22;41205;44.264;19.884;2022-08-18T12:56:47;922.50;1024.00
55329;DHT22;41205;44.264;19.884;2022-08-18T12:59:13;922.50;1049.60
55329;DHT22;41205;44.264;19.884;2022-08-18T13:01:38;947.20;1024.00
55329;DHT22;41205;44.264;19.884;2022-08-18T13:04:04;922.40;1024.00
55329;DHT22;41205;44.264;19.884;2022-08-18T13:06:31;922.40;1024.00
55329;DHT22;41205;44.264;19.884;2022-08-18T13:08:58;922.30;1024.00
55329;DHT22;41205;44.264;19.884;2022-08-18T13:11:24;922.40;1049.60
55329;DHT22;41205;44.264;19.884;2022-08-18T13:13:50;922.40;1049.60
55329;DHT22;41205;44.264;19.884;2022-08-18T13:16:16;922.50;1049.60
55329;DHT22;41205;44.264;19.884;2022-08-18T13:18:43;922.50;998.40
55329;DHT22;41205;44.264;19.884;2022-08-18T13:21:09;922.50;1049.60
55329;DHT22;41205;44.264;19.884;2022-08-18T13:23:35;922.50;1024.00
55329;DHT22;41205;44.264;19.884;2022-08-18T13:26:01;922.50;998.40
55329;DHT22;41205;44.264;19.884;2022-08-18T13:28:28;947.20;1024.00
55329;DHT22;41205;44.264;19.884;2022-08-18T13:30:53;947.20;1024.00
55329;DHT22;41205;44.264;19.884;2022-08-18T13:33:19;947.20;1024.00
55329;DHT22;41205;44.264;19.884;2022-08-18T13:35:45;922.40;998.40
55329;DHT22;41205;44.264;19.884;2022-08-18T13:38:11;922.30;1024.00
55329;DHT22;41205;44.264;19.884;2022-08-18T13:40:38;922.40;1049.60
55329;DHT22;41205;44.264;19.884;2022-08-18T13:43:03;922.40;1049.60
55329;DHT22;41205;44.264;19.884;2022-08-18T13:45:29;922.50;1024.00
55329;DHT22;41205;44.264;19.884;2022-08-18T13:47:55;922.40;1024.00
55329;DHT22;41205;44.264;19.884;2022-08-18T13:50:20;922.50;1049.60
55329;DHT22;41205;44.264;19.884;2022-08-18T13:52:47;922.40;1024.00
55329;DHT22;41205;44.264;19.884;2022-08-18T13:55:15;922.30;1024.00
55329;DHT22;41205;44.264;19.884;2022-08-18T13:57:42;922.30;1024.00
55329;DHT22;41205;44.264;19.884;2022-08-18T14:00:15;922.20;1024.00
55329;DHT22;41205;44.264;19.884;2022-08-18T14:02:41;922.10;1024.00
55329;DHT22;41205;44.264;19.884;2022-08-18T14:05:07;922.10;1024.00
55329;DHT22;41205;44.264;19.884;2022-08-18T14:07:34;922.20;1024.00
55329;DHT22;41205;44.264;19.884;2022-08-18T14:10:01;922.30;1049.60
55329;DHT22;41205;44.264;19.884;2022-08-18T14:12:26;922.30;1024.00
55329;DHT22;41205;44.264;19.884;2022-08-18T14:14:52;922.20;998.40
55329;DHT22;41205;44.264;19.884;2022-08-18T14:17:22;922.20;1024.00
55329;DHT22;41205;44.264;19.884;2022-08-18T14:19:49;922.10;1024.00
55329;DHT22;41205;44.264;19.884;2022-08-18T14:22:37;922.00;998.40
55329;DHT22;41205;44.264;19.884;2022-08-18T14:25:22;922.00;998.40
55329;DHT22;41205;44.264;19.884;2022-08-18T14:28:06;922.00;1024.00
55329;DHT22;41205;44.264;19.884;2022-08-18T14:30:34;922.00;1024.00
55329;DHT22;41205;44.264;19.884;2022-08-18T14:32:59;922.00;1024.00
55329;DHT22;41205;44.264;19.884;2022-08-18T14:35:25;922.00;1024.00
55329;DHT22;41205;44.264;19.884;2022-08-18T14:37:50;922.00;1024.00
55329;DHT22;41205;44.264;19.884;2022-08-18T14:40:16;922.00;1049.60
55329;DHT22;41205;44.264;19.884;2022-08-18T14:42:44;922.00;1024.00
55329;DHT22;41205;44.264;19.884;2022-08-18T14:45:10;922.00;1024.00
55329;DHT22;41205;44.264;19.884;2022-08-18T14:47:39;922.00;1024.00
55329;DHT22;41205;44.264;19.884;2022-08-18T14:50:06;922.00;1024.00
55329;DHT22;41205;44.264;19.884;2022-08-18T14:52:34;921.80;998.40
55329;DHT22;41205;44.264;19.884;2022-08-18T14:55:01;921.80;998.40
55329;DHT22;41205;44.264;19.884;2022-08-18T14:57:26;922.00;998.40
55329;DHT22;41205;44.264;19.884;2022-08-18T14:59:52;922.00;1024.00
55329;DHT22;41205;44.264;19.884;2022-08-18T15:02:17;922.00;1049.60
55329;DHT22;41205;44.264;19.884;2022-08-18T15:04:43;922.00;1024.00
55329;DHT22;41205;44.264;19.884;2022-08-18T15:07:11;922.00;1024.00
55329;DHT22;41205;44.264;19.884;2022-08-18T15:09:36;922.00;1024.00
55329;DHT22;41205;44.264;19.884;2022-08-18T15:12:02;922.00;1024.00
55329;DHT22;41205;44.264;19.884;2022-08-18T15:14:28;922.00;1024.00
55329;DHT22;41205;44.264;19.884;2022-08-18T15:17:02;922.00;1024.00
55329;DHT22;41205;44.264;19.884;2022-08-18T15:19:28;922.00;1024.00
55329;DHT22;41205;44.264;19.884;2022-08-18T15:21:54;922.00;1024.00
55329;DHT22;41205;44.264;19.884;2022-08-18T15:24:39;922.00;1049.60
55329;DHT22;41205;44.264;19.884;2022-08-18T15:27:28;921.80;1024.00
55329;DHT22;41205;44.264;19.884;2022-08-18T15:29:54;921.80;1024.00
55329;DHT22;41205;44.264;19.884;2022-08-18T15:32:19;921.70;1024.00
55329;DHT22;41205;44.264;19.884;2022-08-18T15:34:46;921.70;1024.00
55329;DHT22;41205;44.264;19.884;2022-08-18T15:37:14;921.70;1049.60
55329;DHT22;41205;44.264;19.884;2022-08-18T15:39:41;921.70;1049.60
55329;DHT22;41205;44.264;19.884;2022-08-18T15:42:10;921.60;1024.00
55329;DHT22;41205;44.264;19.884;2022-08-18T15:44:35;921.60;1075.20
55329;DHT22;41205;44.264;19.884;2022-08-18T15:47:01;896.90;1049.60
55329;DHT22;41205;44.264;19.884;2022-08-18T15:49:29;896.90;1100.80
55329;DHT22;41205;44.264;19.884;2022-08-18T15:51:56;896.90;1075.20
55329;DHT22;41205;44.264;19.884;2022-08-18T15:54:21;896.90;1075.20
55329;DHT22;41205;44.264;19.884;2022-08-18T15:56:47;896.90;1100.80
55329;DHT22;41205;44.264;19.884;2022-08-18T15:59:13;896.80;1100.80
55329;DHT22;41205;44.264;19.884;2022-08-18T16:01:38;896.80;1100.80
55329;DHT22;41205;44.264;19.884;2022-08-18T16:04:04;896.80;1100.80
55329;DHT22;41205;44.264;19.884;2022-08-18T16:06:31;896.70;1100.80
55329;DHT22;41205;44.264;19.884;2022-08-18T16:08:57;896.70;1126.40
55329;DHT22;41205;44.264;19.884;2022-08-18T16:11:23;896.50;1126.40
55329;DHT22;41205;44.264;19.884;2022-08-18T16:13:49;896.50;1126.40
55329;DHT22;41205;44.264;19.884;2022-08-18T16:16:19;896.40;1126.40
55329;DHT22;41205;44.264;19.884;2022-08-18T16:18:45;896.40;1126.40
55329;DHT22;41205;44.264;19.884;2022-08-18T16:21:12;896.40;1152.00
55329;DHT22;41205;44.264;19.884;2022-08-18T16:23:42;896.30;1152.00
55329;DHT22;41205;44.264;19.884;2022-08-18T16:26:08;896.10;1152.00
55329;DHT22;41205;44.264;19.884;2022-08-18T16:28:34;896.00;1152.00
55329;DHT22;41205;44.264;19.884;2022-08-18T16:31:00;896.00;1177.60
55329;DHT22;41205;44.264;19.884;2022-08-18T16:33:26;871.30;1177.60
55329;DHT22;41205;44.264;19.884;2022-08-18T16:35:51;871.30;1177.60
55329;DHT22;41205;44.264;19.884;2022-08-18T16:38:17;870.90;1177.60
55329;DHT22;41205;44.264;19.884;2022-08-18T16:40:43;871.20;1177.60
55329;DHT22;41205;44.264;19.884;2022-08-18T16:43:09;871.10;1177.60
55329;DHT22;41205;44.264;19.884;2022-08-18T16:45:36;871.10;1203.20
55329;DHT22;41205;44.264;19.884;2022-08-18T16:48:01;870.90;1203.20
55329;DHT22;41205;44.264;19.884;2022-08-18T16:50:27;870.90;1203.20
55329;DHT22;41205;44.264;19.884;2022-08-18T16:52:54;870.90;1228.80
55329;DHT22;41205;44.264;19.884;2022-08-18T16:55:20;870.70;1228.80
55329;DHT22;41205;44.264;19.884;2022-08-18T16:57:45;870.70;1254.40
55329;DHT22;41205;44.264;19.884;2022-08-18T17:00:30;870.60;1228.80
55329;DHT22;41205;44.264;19.884;2022-08-18T17:03:15;870.50;1254.40
55329;DHT22;41205;44.264;19.884;2022-08-18T17:06:03;870.40;1280.00
55329;DHT22;41205;44.264;19.884;2022-08-18T17:08:29;845.70;1305.60
55329;DHT22;41205;44.264;19.884;2022-08-18T17:11:05;845.60;1331.20
55329;DHT22;41205;44.264;19.884;2022-08-18T17:13:31;845.40;1356.80
55329;DHT22;41205;44.264;19.884;2022-08-18T17:15:57;845.30;1331.20
55329;DHT22;41205;44.264;19.884;2022-08-18T17:18:22;845.20;1305.60
55329;DHT22;41205;44.264;19.884;2022-08-18T17:20:49;845.20;1280.00
55329;DHT22;41205;44.264;19.884;2022-08-18T17:23:14;845.10;1305.60